Time;durP1;ratioP1;P1;durP2;ratioP2;P2;SDS_P1;SDS_P2;PMS_P1;PMS_P2;Temp;Humidity;BMP_temperature;BMP_pressure;BME280_temperature;BME280_humidity;BME280_pressure;Samples;Min_cycle;Max_cycle;Signal;HPM_P1;HPM_P2
2021/06/27 00:01:05;;;;;;;18.80;16.90;;;;;;;16.25;87.72;99095.25;124678;1093;64274;-76
2021/06/27 00:03:32;;;;;;;19.03;17.30;;;;;;;16.21;87.74;99094.66;124659;1093;64311;-77
2021/06/27 00:05:59;;;;;;;18.30;16.60;;;;;;;16.19;87.58;99093.96;124805;1093;64288;-77
2021/06/27 00:08:27;;;;;;;17.07;15.60;;;;;;;16.16;87.95;99094.20;124812;1093;64276;-77
2021/06/27 00:10:58;;;;;;;20.13;18.37;;;;;;;16.16;87.80;99096.05;124822;1093;64344;-75
2021/06/27 00:13:27;;;;;;;18.83;17.20;;;;;;;16.17;87.78;99097.77;124844;1093;64319;-75
2021/06/27 00:15:56;;;;;;;19.00;17.13;;;;;;;16.14;87.65;99098.89;124711;1092;64287;-77
2021/06/27 00:18:25;;;;;;;18.23;16.73;;;;;;;16.07;87.48;99097.73;124930;1092;64411;-76
2021/06/27 00:20:58;;;;;;;19.10;17.37;;;;;;;15.99;87.71;99098.39;124878;1093;64290;-76
2021/06/27 00:23:29;;;;;;;18.27;16.57;;;;;;;15.94;87.77;99105.16;124796;1093;64279;-76
2021/06/27 00:25:58;;;;;;;20.93;18.97;;;;;;;15.91;87.71;99102.75;124830;1093;64280;-76
2021/06/27 00:28:27;;;;;;;20.83;18.90;;;;;;;15.88;87.60;99108.40;124821;1093;64303;-76
2021/06/27 00:30:54;;;;;;;20.77;18.97;;;;;;;15.81;88.08;99113.44;124811;1093;64316;-76
2021/06/27 00:33:22;;;;;;;34.77;31.53;;;;;;;15.80;88.20;99114.44;124797;1093;64273;-76
2021/06/27 00:35:50;;;;;;;30.53;27.53;;;;;;;15.81;88.29;99108.06;124791;1093;64174;-76
2021/06/27 00:38:18;;;;;;;25.43;23.07;;;;;;;15.79;88.26;99108.19;124819;1093;64287;-76
2021/06/27 00:40:46;;;;;;;26.60;24.07;;;;;;;15.79;88.38;99107.34;124778;1093;64276;-76
2021/06/27 00:43:14;;;;;;;26.67;24.07;;;;;;;15.78;88.54;99101.13;124819;1093;64287;-76
2021/06/27 00:45:42;;;;;;;28.00;25.50;;;;;;;15.77;88.42;99101.23;124876;1093;64294;-76
2021/06/27 00:48:09;;;;;;;24.47;22.03;;;;;;;15.76;88.34;99094.17;124825;1093;64641;-76
2021/06/27 00:50:58;;;;;;;22.53;20.53;;;;;;;15.74;88.71;99094.30;124858;1093;64245;-76
2021/06/27 00:53:26;;;;;;;23.30;21.05;;;;;;;15.70;88.78;99100.09;124779;1093;64216;-76
2021/06/27 00:55:54;;;;;;;24.20;21.70;;;;;;;15.71;88.87;99089.19;124785;1093;64188;-76
2021/06/27 00:58:30;;;;;;;23.53;21.40;;;;;;;15.76;88.90;99097.70;124703;1093;64335;-76
2021/06/27 01:00:59;;;;;;;25.10;22.70;;;;;;;15.76;88.69;99097.70;124929;1093;64271;-76
2021/06/27 01:03:27;;;;;;;20.73;18.93;;;;;;;15.71;88.28;99099.94;124898;1093;64220;-76
2021/06/27 01:05:55;;;;;;;23.90;21.80;;;;;;;15.67;88.57;99094.95;124627;1093;64316;-76
2021/06/27 01:08:23;;;;;;;21.45;19.45;;;;;;;15.59;88.17;99101.83;124758;1093;64440;-76
2021/06/27 01:10:51;;;;;;;21.63;19.63;;;;;;;15.55;88.34;99096.84;124834;1093;64303;-76
2021/06/27 01:13:21;;;;;;;27.97;25.00;;;;;;;15.51;88.67;99103.48;124769;1093;64267;-76
2021/06/27 01:15:50;;;;;;;38.33;31.17;;;;;;;15.46;88.78;99094.97;124810;1093;64319;-76
2021/06/27 01:18:17;;;;;;;29.90;26.90;;;;;;;15.45;89.58;99098.61;124797;1093;64296;-76
2021/06/27 01:20:45;;;;;;;31.10;27.70;;;;;;;15.49;89.35;99092.86;124761;1093;64308;-76
2021/06/27 01:23:16;;;;;;;27.95;25.05;;;;;;;15.49;89.13;99100.07;124780;1093;64281;-76
2021/06/27 01:25:46;;;;;;;29.00;25.97;;;;;;;15.51;89.59;99101.64;124816;1092;64242;-76
2021/06/27 01:28:14;;;;;;;23.33;21.03;;;;;;;15.50;88.86;99109.81;124812;1093;64306;-76
2021/06/27 01:30:43;;;;;;;26.13;23.50;;;;;;;15.45;88.75;99099.46;124816;1093;64351;-76
2021/06/27 01:33:14;;;;;;;27.20;24.33;;;;;;;15.42;88.92;99099.73;124862;1093;64756;-76
2021/06/27 01:35:42;;;;;;;29.60;26.63;;;;;;;15.41;89.24;99103.41;124819;1093;64287;-76
2021/06/27 01:38:12;;;;;;;29.57;26.33;;;;;;;15.42;89.49;99101.56;124811;1093;64242;-76
2021/06/27 01:40:39;;;;;;;26.30;23.75;;;;;;;15.41;89.40;99100.72;124844;1092;64309;-76
2021/06/27 01:43:23;;;;;;;25.97;23.17;;;;;;;15.36;89.18;99097.58;124809;1093;64340;-76
2021/06/27 01:45:57;;;;;;;26.70;23.53;;;;;;;15.30;89.05;99103.48;124807;1093;64296;-76
2021/06/27 01:48:26;;;;;;;26.07;22.07;;;;;;;15.23;89.19;99104.97;124834;1093;64264;-76
2021/06/27 01:50:56;;;;;;;27.73;24.73;;;;;;;15.19;89.43;99103.51;124877;1093;64211;-76
2021/06/27 01:53:29;;;;;;;28.37;25.57;;;;;;;15.20;89.97;99116.81;124710;1093;64331;-76
2021/06/27 01:56:05;;;;;;;28.93;26.23;;;;;;;15.25;90.01;99119.97;124832;1093;64342;-76
2021/06/27 01:58:37;;;;;;;27.90;25.10;;;;;;;15.29;90.01;99116.03;124771;1093;64245;-76
2021/06/27 02:01:09;;;;;;;26.13;23.63;;;;;;;15.36;90.09;99130.64;124847;1093;64279;-76
2021/06/27 02:03:37;;;;;;;30.43;25.40;;;;;;;15.45;90.31;99120.95;124787;1093;64271;-76
2021/06/27 02:06:05;;;;;;;29.10;26.30;;;;;;;15.50;90.48;99132.16;124806;1093;64297;-76
2021/06/27 02:08:38;;;;;;;41.45;28.20;;;;;;;15.55;90.38;99137.14;124835;1093;64405;-76
2021/06/27 02:11:07;;;;;;;39.83;29.00;;;;;;;15.56;91.08;99141.52;124841;1093;64443;-76
2021/06/27 02:13:36;;;;;;;38.17;27.87;;;;;;;15.54;91.08;99136.30;124807;1093;64191;-76
2021/06/27 02:16:04;;;;;;;31.40;26.23;;;;;;;15.52;90.82;99132.03;124775;1092;64203;-76
2021/06/27 02:18:35;;;;;;;30.30;24.90;;;;;;;15.56;91.11;99128.09;124701;1093;64284;-76
2021/06/27 02:21:09;;;;;;;29.73;25.53;;;;;;;15.61;91.14;99130.39;124816;1091;64414;-76
2021/06/27 02:23:37;;;;;;;32.80;27.43;;;;;;;15.53;90.76;99126.55;124783;1093;64418;-76
2021/06/27 02:26:05;;;;;;;33.67;27.10;;;;;;;15.51;90.90;99125.81;124817;1093;64771;-76
2021/06/27 02:28:33;;;;;;;30.67;25.57;;;;;;;15.57;91.25;99127.13;124816;1092;64293;-76
2021/06/27 02:31:01;;;;;;;29.97;25.40;;;;;;;15.57;91.37;99127.97;124803;1092;64188;-76
2021/06/27 02:33:30;;;;;;;28.83;25.03;;;;;;;15.64;91.43;99131.00;124768;1093;64435;-76
2021/06/27 02:35:58;;;;;;;31.03;24.67;;;;;;;15.61;90.75;99128.55;124806;1093;64877;-76
2021/06/27 02:38:25;;;;;;;27.97;24.00;;;;;;;15.59;91.30;99135.91;124818;1093;64313;-76
2021/06/27 02:40:54;;;;;;;33.30;25.90;;;;;;;15.60;91.16;99132.23;124795;1093;64296;-76
2021/06/27 02:43:23;;;;;;;40.80;27.43;;;;;;;15.59;91.03;99127.85;124890;1092;64294;-76
2021/06/27 02:45:50;;;;;;;52.63;34.30;;;;;;;15.53;90.98;99123.86;124803;1093;64385;-76
2021/06/27 02:48:17;;;;;;;60.95;39.75;;;;;;;15.54;91.24;99124.70;124793;1093;64532;-76
2021/06/27 02:50:45;;;;;;;65.40;40.17;;;;;;;15.55;91.30;99121.87;124764;1093;64271;-76
2021/06/27 02:53:12;;;;;;;54.47;36.23;;;;;;;15.59;91.46;99117.95;124814;1093;64307;-76
2021/06/27 02:55:41;;;;;;;41.53;31.37;;;;;;;15.64;91.38;99122.94;124756;1093;64313;-76
2021/06/27 02:58:09;;;;;;;34.30;26.97;;;;;;;15.67;91.19;99119.98;124809;1093;64316;-76
2021/06/27 03:00:36;;;;;;;33.73;27.67;;;;;;;15.67;90.57;99121.83;124797;1093;64361;-76
2021/06/27 03:03:03;;;;;;;29.57;26.37;;;;;;;15.59;89.96;99127.85;124758;1093;64305;-76
2021/06/27 03:05:31;;;;;;;39.20;28.25;;;;;;;15.46;89.67;99119.98;124794;1093;64376;-76
2021/06/27 03:07:59;;;;;;;35.30;28.25;;;;;;;15.40;90.39;99120.48;124787;1093;64309;-76
2021/06/27 03:10:26;;;;;;;36.33;29.73;;;;;;;15.33;89.96;99116.64;124794;1093;64271;-76
2021/06/27 03:12:54;;;;;;;41.30;29.07;;;;;;;15.33;90.36;99122.86;124897;1093;64368;-77
2021/06/27 03:15:21;;;;;;;42.63;31.10;;;;;;;15.35;90.44;99115.53;124764;1093;64207;-77
2021/06/27 03:17:48;;;;;;;37.77;30.13;;;;;;;15.44;90.55;99116.57;124808;1093;64287;-77
2021/06/27 03:20:17;;;;;;;34.83;30.23;;;;;;;15.49;90.85;99116.19;124782;1093;64306;-76
2021/06/27 03:22:46;;;;;;;37.65;30.05;;;;;;;15.57;90.26;99116.38;124827;1093;64309;-76
2021/06/27 03:25:15;;;;;;;33.35;28.20;;;;;;;15.62;90.14;99126.73;124862;1093;64284;-76
2021/06/27 03:27:43;;;;;;;31.60;26.90;;;;;;;15.68;90.48;99118.98;124818;1093;64273;-77
2021/06/27 03:30:11;;;;;;;31.03;27.70;;;;;;;15.77;90.09;99115.55;124803;1093;64242;-77
2021/06/27 03:32:39;;;;;;;28.73;25.57;;;;;;;15.82;90.40;99107.06;124832;1093;64291;-77
2021/06/27 03:35:07;;;;;;;29.10;26.00;;;;;;;15.88;89.87;99113.77;124785;1093;64265;-77
2021/06/27 03:37:34;;;;;;;43.03;27.60;;;;;;;15.94;90.66;99113.23;124776;1093;64367;-77
2021/06/27 03:40:04;;;;;;;56.60;27.53;;;;;;;16.01;90.64;99107.19;124788;1093;64274;-77
2021/06/27 03:42:32;;;;;;;39.77;26.60;;;;;;;16.08;90.68;99117.39;124829;1093;64274;-77
2021/06/27 03:44:59;;;;;;;33.00;26.75;;;;;;;16.15;90.66;99121.25;124797;1093;64361;-77
2021/06/27 03:47:26;;;;;;;28.30;25.40;;;;;;;16.28;91.11;99108.42;124772;1093;64303;-77
2021/06/27 03:49:54;;;;;;;29.93;25.10;;;;;;;16.42;90.57;99104.49;124778;1093;64364;-77
2021/06/27 03:52:21;;;;;;;30.13;25.37;;;;;;;16.55;90.48;99104.25;124789;1093;64277;-77
2021/06/27 03:54:49;;;;;;;31.43;23.53;;;;;;;16.64;90.27;99112.35;124801;1093;64242;-77
2021/06/27 03:57:16;;;;;;;29.67;23.23;;;;;;;16.69;90.21;99114.60;124785;1093;64271;-77
2021/06/27 03:59:43;;;;;;;30.43;23.60;;;;;;;16.72;90.04;99117.05;124778;1093;64238;-77
2021/06/27 04:02:11;;;;;;;26.03;23.40;;;;;;;16.82;90.26;99112.53;124798;1093;64244;-77
2021/06/27 04:04:38;;;;;;;26.23;23.53;;;;;;;16.97;90.04;99112.14;124803;1093;64287;-77
2021/06/27 04:07:05;;;;;;;24.90;22.57;;;;;;;17.11;89.65;99119.79;124837;1093;64281;-77
2021/06/27 04:09:32;;;;;;;24.35;22.10;;;;;;;17.16;89.31;99109.45;124803;1093;64272;-77
2021/06/27 04:12:00;;;;;;;23.50;21.27;;;;;;;17.29;89.30;99110.01;124759;1093;64427;-77
2021/06/27 04:14:28;;;;;;;24.80;22.50;;;;;;;17.41;89.00;99104.49;124811;1093;64245;-78
2021/06/27 04:16:55;;;;;;;24.80;22.33;;;;;;;17.51;88.87;99103.48;124780;1093;64277;-77
2021/06/27 04:19:22;;;;;;;27.25;24.55;;;;;;;17.57;89.05;99102.05;124777;1093;64264;-77
2021/06/27 04:21:50;;;;;;;27.23;24.67;;;;;;;17.64;88.83;99107.69;124817;1093;64245;-77
2021/06/27 04:24:17;;;;;;;28.27;25.43;;;;;;;17.73;88.57;99096.90;124781;1093;64283;-78
2021/06/27 04:26:44;;;;;;;25.27;22.87;;;;;;;17.80;87.93;99099.03;124794;1093;64437;-77
2021/06/27 04:29:13;;;;;;;24.90;22.50;;;;;;;17.78;87.68;99105.41;124780;1093;64374;-78
2021/06/27 04:31:41;;;;;;;27.27;24.40;;;;;;;17.76;87.88;99106.55;124793;1093;64315;-78
2021/06/27 04:34:10;;;;;;;26.03;23.53;;;;;;;17.76;87.65;99102.00;124853;1093;64271;-78
2021/06/27 04:36:38;;;;;;;26.07;23.50;;;;;;;17.86;87.52;99096.62;124804;1093;64276;-78
2021/06/27 04:39:06;;;;;;;27.50;24.80;;;;;;;17.96;87.45;99102.83;124781;1093;64270;-78
2021/06/27 04:41:35;;;;;;;25.53;23.03;;;;;;;18.05;87.15;99094.85;124871;1093;64255;-78
2021/06/27 04:44:03;;;;;;;28.57;25.70;;;;;;;18.12;87.05;99099.51;124860;1093;64287;-78
2021/06/27 04:46:31;;;;;;;26.17;23.67;;;;;;;18.19;86.67;99094.35;124818;1093;64268;-78
2021/06/27 04:48:58;;;;;;;28.37;25.73;;;;;;;18.24;86.24;99094.75;124828;1093;64294;-78
2021/06/27 04:51:26;;;;;;;28.00;25.43;;;;;;;18.33;86.73;99093.88;124684;1093;64347;-78
2021/06/27 04:53:53;;;;;;;29.67;26.77;;;;;;;18.40;86.50;99092.29;124804;1093;64265;-78
2021/06/27 04:56:20;;;;;;;28.73;26.13;;;;;;;18.41;86.12;99095.83;124813;1093;64276;-77
2021/06/27 04:58:48;;;;;;;29.10;26.30;;;;;;;18.45;86.14;99097.20;124763;1093;64274;-77
2021/06/27 05:01:15;;;;;;;28.85;26.05;;;;;;;18.44;86.08;99098.22;124769;1092;64411;-77
2021/06/27 05:03:42;;;;;;;27.77;25.07;;;;;;;18.38;85.93;99099.67;124803;1093;64268;-78
2021/06/27 05:06:09;;;;;;;28.10;25.40;;;;;;;18.40;85.72;99096.81;124779;1093;64271;-78
2021/06/27 05:08:36;;;;;;;35.03;31.23;;;;;;;18.51;86.09;99096.63;124775;1093;64321;-78
2021/06/27 05:11:04;;;;;;;37.63;32.70;;;;;;;18.57;85.74;99097.87;124829;1093;64281;-77
2021/06/27 05:13:31;;;;;;;42.55;35.85;;;;;;;18.57;85.76;99097.87;124749;1093;64290;-78
2021/06/27 05:15:58;;;;;;;63.90;49.50;;;;;;;18.63;85.84;99090.00;124818;1093;64338;-77
2021/06/27 05:18:25;;;;;;;63.17;50.47;;;;;;;18.79;85.47;99094.75;124709;1092;64307;-77
2021/06/27 05:20:53;;;;;;;50.10;39.73;;;;;;;18.93;85.21;99097.93;124835;1093;64268;-77
2021/06/27 05:23:20;;;;;;;42.50;34.97;;;;;;;19.04;85.05;99095.87;124891;1093;64278;-78
2021/06/27 05:25:47;;;;;;;38.85;34.55;;;;;;;19.17;85.06;99094.61;124805;1093;64380;-77
2021/06/27 05:28:15;;;;;;;46.20;38.70;;;;;;;19.35;84.87;99092.73;124777;1093;64270;-77
2021/06/27 05:30:42;;;;;;;36.23;32.50;;;;;;;19.52;84.64;99102.69;124674;1093;64297;-77
2021/06/27 05:33:09;;;;;;;31.33;28.10;;;;;;;19.60;84.07;99103.77;124780;1093;64271;-78
2021/06/27 05:35:37;;;;;;;32.27;28.77;;;;;;;19.73;84.36;99101.52;124841;1093;64271;-77
2021/06/27 05:38:04;;;;;;;34.77;31.47;;;;;;;19.93;84.23;99104.84;124806;1093;64341;-77
2021/06/27 05:40:31;;;;;;;33.87;30.57;;;;;;;20.20;83.34;99101.13;124781;1093;64364;-77
2021/06/27 05:42:58;;;;;;;33.23;30.03;;;;;;;20.45;82.94;99098.52;124790;1092;64364;-77
2021/06/27 05:45:26;;;;;;;33.30;30.03;;;;;;;20.77;82.01;99098.67;124874;1093;64383;-78
2021/06/27 05:47:53;;;;;;;30.73;27.77;;;;;;;21.10;81.69;99108.72;124860;1092;64251;-77
2021/06/27 05:50:21;;;;;;;31.70;28.60;;;;;;;21.40;79.23;99102.66;124887;1093;64271;-77
2021/06/27 05:52:48;;;;;;;32.65;29.65;;;;;;;21.42;79.57;99105.20;124902;1093;64339;-77
2021/06/27 05:55:16;;;;;;;31.77;28.83;;;;;;;21.97;79.04;99106.34;124857;1093;64284;-78
2021/06/27 05:57:44;;;;;;;32.55;29.50;;;;;;;22.67;78.15;99098.31;124791;1093;64245;-78
2021/06/27 06:00:11;;;;;;;32.03;29.23;;;;;;;22.94;76.98;99098.84;124777;1092;64177;-78
2021/06/27 06:02:38;;;;;;;33.80;30.60;;;;;;;23.11;76.69;99108.59;124786;1093;64315;-78
2021/06/27 06:05:06;;;;;;;32.30;29.27;;;;;;;23.15;76.18;99112.66;124786;1093;64245;-76
2021/06/27 06:07:34;;;;;;;31.37;28.67;;;;;;;23.31;75.52;99117.13;124820;1093;64241;-76
2021/06/27 06:10:01;;;;;;;34.27;31.17;;;;;;;23.82;73.76;99117.38;124783;1093;64281;-76
2021/06/27 06:12:28;;;;;;;37.07;33.77;;;;;;;24.42;72.76;99109.27;124828;1093;64213;-77
2021/06/27 06:14:56;;;;;;;30.73;28.17;;;;;;;24.78;70.33;99103.89;124760;1093;64387;-78
2021/06/27 06:17:23;;;;;;;32.70;29.70;;;;;;;24.49;70.78;99107.52;124797;1093;64207;-77
2021/06/27 06:19:52;;;;;;;32.47;29.30;;;;;;;24.22;70.72;99108.97;124811;1093;64214;-76
2021/06/27 06:22:22;;;;;;;30.60;27.70;;;;;;;23.99;70.50;99107.19;124661;1093;64297;-77
2021/06/27 06:24:49;;;;;;;29.33;26.83;;;;;;;24.12;70.96;99101.11;124769;1093;64283;-77
2021/06/27 06:27:16;;;;;;;34.83;31.63;;;;;;;24.34;70.81;99102.03;124789;1093;64293;-77
2021/06/27 06:29:43;;;;;;;32.40;29.47;;;;;;;24.57;69.42;99107.41;124780;1093;64245;-77
2021/06/27 06:32:10;;;;;;;30.27;27.70;;;;;;;24.56;69.62;99104.86;124787;1093;64357;-76
2021/06/27 06:34:38;;;;;;;31.10;28.25;;;;;;;24.85;69.67;99106.67;124814;1092;64210;-77
2021/06/27 06:37:06;;;;;;;31.50;28.80;;;;;;;24.82;68.76;99109.79;124813;1093;64194;-76
2021/06/27 06:39:33;;;;;;;33.33;30.50;;;;;;;24.68;69.12;99115.08;124753;1093;64308;-78
2021/06/27 06:42:00;;;;;;;33.53;30.17;;;;;;;24.58;69.20;99117.25;124758;1092;64395;-78
2021/06/27 06:44:27;;;;;;;32.23;29.27;;;;;;;24.38;68.77;99107.94;124824;1093;64276;-77
2021/06/27 06:46:55;;;;;;;33.37;30.27;;;;;;;24.89;68.67;99110.72;124772;1093;64300;-76
2021/06/27 06:49:22;;;;;;;33.23;30.23;;;;;;;25.41;68.21;99106.90;124799;1092;64309;-77
2021/06/27 06:51:49;;;;;;;31.43;28.33;;;;;;;25.83;67.17;99108.72;124770;1093;64203;-77
2021/06/27 06:54:16;;;;;;;30.67;27.87;;;;;;;26.20;67.20;99108.59;124795;1093;64434;-77
2021/06/27 06:56:44;;;;;;;26.70;24.20;;;;;;;26.48;66.80;99116.71;124795;1093;64223;-77
2021/06/27 06:59:11;;;;;;;26.37;23.67;;;;;;;26.55;65.67;99114.90;124847;1093;64245;-77
2021/06/27 07:01:38;;;;;;;26.00;23.60;;;;;;;26.62;65.84;99114.91;124785;1093;64238;-77
2021/06/27 07:04:05;;;;;;;25.93;23.57;;;;;;;26.87;65.18;99116.08;124789;1093;64364;-77
2021/06/27 07:06:32;;;;;;;25.77;23.43;;;;;;;27.00;64.79;99112.55;124824;1093;64294;-77
2021/06/27 07:09:00;;;;;;;26.70;24.20;;;;;;;26.88;63.87;99114.17;124815;1093;64275;-77
2021/06/27 07:11:27;;;;;;;26.37;23.87;;;;;;;26.64;63.97;99110.92;124841;1093;64287;-78
2021/06/27 07:13:54;;;;;;;25.17;22.63;;;;;;;26.35;63.55;99112.02;124694;1093;64188;-78
2021/06/27 07:16:21;;;;;;;23.97;21.77;;;;;;;26.00;63.44;99116.64;124865;1093;64259;-77
2021/06/27 07:18:49;;;;;;;24.27;21.90;;;;;;;25.84;62.94;99123.24;124663;1093;64335;-77
2021/06/27 07:21:16;;;;;;;25.63;23.13;;;;;;;25.57;63.61;99122.16;124786;1093;64265;-78
2021/06/27 07:23:43;;;;;;;25.90;23.35;;;;;;;25.45;64.42;99120.98;124767;1093;64309;-78
2021/06/27 07:26:11;;;;;;;29.33;26.07;;;;;;;25.18;64.66;99117.99;124876;1093;64312;-78
2021/06/27 07:28:39;;;;;;;28.83;26.10;;;;;;;25.02;65.02;99123.66;124791;1093;64290;-78
2021/06/27 07:31:06;;;;;;;27.35;24.55;;;;;;;24.87;65.15;99113.63;124843;1093;64429;-78
2021/06/27 07:33:33;;;;;;;23.87;21.67;;;;;;;24.75;65.36;99115.18;124758;1093;64213;-77
2021/06/27 07:36:00;;;;;;;22.00;19.95;;;;;;;24.62;65.08;99120.44;124811;1092;64284;-77
2021/06/27 07:38:28;;;;;;;21.33;19.33;;;;;;;24.49;65.13;99112.96;124690;1093;64248;-79
2021/06/27 07:40:55;;;;;;;22.87;20.67;;;;;;;24.33;65.39;99116.70;124798;1093;64306;-78
2021/06/27 07:43:22;;;;;;;25.07;22.63;;;;;;;24.30;65.55;99111.59;124848;1093;64317;-78
2021/06/27 07:45:49;;;;;;;24.50;22.17;;;;;;;24.23;66.18;99108.80;124838;1093;64293;-77
2021/06/27 07:48:17;;;;;;;24.00;21.73;;;;;;;24.20;65.88;99108.34;124858;1093;64397;-77
2021/06/27 07:50:44;;;;;;;25.50;23.10;;;;;;;24.15;66.34;99110.78;124911;1093;64297;-77
2021/06/27 07:53:11;;;;;;;25.30;23.00;;;;;;;24.08;65.71;99114.23;125161;1093;64402;-77
2021/06/27 07:55:39;;;;;;;22.80;20.80;;;;;;;24.01;66.01;99106.98;125165;1093;64290;-77
2021/06/27 07:58:06;;;;;;;22.00;20.10;;;;;;;24.00;66.13;99108.03;125193;1093;64267;-78
2021/06/27 08:00:34;;;;;;;21.50;19.40;;;;;;;24.04;66.31;99106.61;124928;1093;64276;-77
2021/06/27 08:03:01;;;;;;;23.07;20.67;;;;;;;24.07;66.34;99107.11;124863;1093;64393;-78
2021/06/27 08:05:28;;;;;;;20.93;18.93;;;;;;;24.17;66.27;99101.39;124749;1093;64245;-78
2021/06/27 08:07:55;;;;;;;22.97;20.63;;;;;;;24.21;65.32;99099.97;124812;1093;64332;-78
2021/06/27 08:10:23;;;;;;;22.77;20.47;;;;;;;24.17;65.44;99095.94;124832;1093;64223;-78
2021/06/27 08:12:50;;;;;;;20.97;19.03;;;;;;;24.18;65.55;99096.78;124820;1093;64244;-77
2021/06/27 08:15:18;;;;;;;20.83;18.93;;;;;;;24.24;65.65;99101.47;124831;1092;64291;-77
2021/06/27 08:17:50;;;;;;;20.43;18.63;;;;;;;24.36;65.96;99099.97;124824;1093;64356;-77
2021/06/27 08:20:20;;;;;;;21.73;19.90;;;;;;;24.38;65.61;99108.80;124804;1093;64855;-77
2021/06/27 08:22:48;;;;;;;21.13;19.23;;;;;;;24.43;65.44;99108.21;124808;1093;64290;-77
2021/06/27 08:25:16;;;;;;;21.77;19.77;;;;;;;24.41;64.38;99108.42;124809;1093;64283;-77
2021/06/27 08:27:45;;;;;;;21.13;19.33;;;;;;;24.32;64.56;99109.54;124734;1093;64287;-77
2021/06/27 08:30:14;;;;;;;21.77;19.87;;;;;;;24.32;64.83;99106.81;124819;1093;64287;-79
2021/06/27 08:32:43;;;;;;;21.88;19.90;;;;;;;24.38;64.74;99114.25;124693;1093;64261;-78
2021/06/27 08:35:13;;;;;;;21.33;19.43;;;;;;;24.49;65.13;99110.23;124738;1093;64284;-79
2021/06/27 08:37:41;;;;;;;16.15;14.78;;;;;;;24.52;63.82;99113.41;124878;1093;64211;-79
2021/06/27 08:40:11;;;;;;;14.77;13.30;;;;;;;24.56;63.09;99110.30;124827;1093;64306;-79
2021/06/27 08:42:38;;;;;;;;;;;;;;;24.62;62.59;99115.86;124839;1093;64290;-79
2021/06/27 08:45:08;;;;;;;16.13;14.50;;;;;;;24.66;63.50;99108.97;124868;1093;64191;-78
2021/06/27 08:47:36;;;;;;;16.37;14.77;;;;;;;24.78;63.06;99108.47;124935;1093;64284;-77
2021/06/27 08:50:10;;;;;;;14.77;13.37;;;;;;;24.89;62.86;99111.56;124847;1093;64380;-77
2021/06/27 08:52:37;;;;;;;13.87;12.67;;;;;;;25.01;62.61;99106.44;124718;1093;64261;-77
2021/06/27 08:55:05;;;;;;;14.35;13.15;;;;;;;25.25;62.48;99104.41;124693;1093;64377;-77
2021/06/27 08:57:34;;;;;;;14.00;12.80;;;;;;;25.36;62.67;99099.29;124832;1093;64385;-77
2021/06/27 09:00:04;;;;;;;13.85;12.75;;;;;;;25.44;61.85;99103.77;124872;1093;64306;-76
2021/06/27 09:02:32;;;;;;;14.00;12.80;;;;;;;25.36;60.91;99114.82;124842;1093;64271;-76
2021/06/27 09:05:00;;;;;;;13.77;12.57;;;;;;;25.40;61.27;99103.30;124786;1093;64778;-77
2021/06/27 09:07:33;;;;;;;14.23;13.13;;;;;;;25.47;60.53;99103.38;124774;1093;64265;-77
2021/06/27 09:10:07;;;;;;;13.23;12.03;;;;;;;25.68;60.98;99107.97;124813;1092;64415;-77
2021/06/27 09:12:55;;;;;;;14.90;13.60;;;;;;;25.94;60.56;99107.36;124807;1093;64290;-77
2021/06/27 09:15:50;;;;;;;14.23;12.83;;;;;;;26.13;59.66;99104.97;124673;1093;64278;-77
2021/06/27 09:18:18;;;;;;;11.65;10.80;;;;;;;26.28;57.14;99108.42;124799;1093;64267;-77
2021/06/27 09:20:50;;;;;;;9.83;8.93;;;;;;;26.24;55.91;99107.96;124750;1093;64290;-78
2021/06/27 09:23:20;;;;;;;10.20;9.37;;;;;;;26.27;55.83;99104.82;124720;1093;64418;-77
2021/06/27 09:25:47;;;;;;;11.30;10.37;;;;;;;26.21;56.38;99104.80;124813;1093;64287;-77
2021/06/27 09:28:19;;;;;;;9.47;8.63;;;;;;;26.43;57.32;99094.61;124767;1093;64244;-77
2021/06/27 09:30:55;;;;;;;7.80;7.10;;;;;;;26.82;57.69;99093.13;124682;1093;64395;-77
2021/06/27 09:33:29;;;;;;;7.20;6.63;;;;;;;27.13;55.52;99098.06;124782;1093;64354;-77
2021/06/27 09:35:56;;;;;;;8.87;8.17;;;;;;;27.22;55.95;99093.25;124815;1093;64360;-76
2021/06/27 09:38:31;;;;;;;10.77;8.90;;;;;;;27.27;53.83;99099.78;124803;1093;64255;-76
2021/06/27 09:41:18;;;;;;;8.30;7.60;;;;;;;27.28;53.68;99089.71;124824;1093;64369;-76
2021/06/27 09:43:55;;;;;;;7.37;6.70;;;;;;;27.01;52.40;99092.33;124798;1093;64217;-76
2021/06/27 09:46:43;;;;;;;8.80;8.00;;;;;;;26.92;52.73;99088.11;124746;1093;64267;-77
2021/06/27 09:49:28;;;;;;;9.53;8.70;;;;;;;26.90;52.05;99085.58;124810;1093;64306;-77
2021/06/27 09:52:07;;;;;;;8.83;7.70;;;;;;;26.84;52.71;99091.88;124872;1093;64210;-76
2021/06/27 09:54:37;;;;;;;7.55;6.95;;;;;;;26.80;53.64;99089.75;124840;1093;64287;-77
2021/06/27 09:57:07;;;;;;;7.63;7.03;;;;;;;26.81;53.52;99091.45;124780;1092;64204;-77
2021/06/27 09:59:42;;;;;;;7.73;7.13;;;;;;;26.88;54.52;99086.83;124802;1093;64363;-77
2021/06/27 10:02:10;;;;;;;8.17;7.50;;;;;;;26.96;53.71;99080.33;124783;1092;64284;-77
2021/06/27 10:04:39;;;;;;;9.07;8.27;;;;;;;26.92;52.95;99077.17;124796;1093;64284;-77
2021/06/27 10:07:08;;;;;;;7.23;6.73;;;;;;;26.91;51.87;99070.87;124784;1093;64221;-76
2021/06/27 10:09:37;;;;;;;8.28;7.55;;;;;;;26.77;49.92;99068.30;124705;1093;64287;-77
2021/06/27 10:12:16;;;;;;;7.10;6.50;;;;;;;26.61;49.69;99070.34;124743;1093;64187;-77
2021/06/27 10:14:51;;;;;;;8.25;7.55;;;;;;;26.47;50.33;99079.51;124834;1093;64223;-76
2021/06/27 10:17:22;;;;;;;11.13;8.50;;;;;;;26.40;51.37;99070.42;124788;1093;64287;-77
2021/06/27 10:19:50;;;;;;;8.77;7.97;;;;;;;26.57;51.56;99066.34;124865;1093;64193;-77
2021/06/27 10:22:18;;;;;;;8.43;7.73;;;;;;;26.67;50.88;99066.80;124768;1092;64188;-78
2021/06/27 10:24:45;;;;;;;9.20;8.33;;;;;;;26.75;50.91;99062.17;124798;1094;64267;-77
2021/06/27 10:27:15;;;;;;;8.23;7.53;;;;;;;26.83;51.63;99060.13;124801;1092;64352;-77
2021/06/27 10:29:47;;;;;;;8.33;7.63;;;;;;;26.99;50.88;99055.30;124797;1093;64284;-77
2021/06/27 10:32:17;;;;;;;8.60;7.87;;;;;;;27.14;52.04;99056.80;124800;1093;64274;-76
2021/06/27 10:34:45;;;;;;;8.07;7.37;;;;;;;27.40;51.07;99057.08;124776;1093;64291;-77
2021/06/27 10:37:23;;;;;;;8.80;8.10;;;;;;;26.99;48.96;99050.69;124620;1092;64336;-76
2021/06/27 10:40:07;;;;;;;8.67;7.73;;;;;;;26.84;50.23;99048.13;124659;1093;64451;-77
2021/06/27 10:42:49;;;;;;;7.93;7.30;;;;;;;26.95;50.21;99041.20;124779;1093;64329;-77
2021/06/27 10:45:19;;;;;;;8.00;7.30;;;;;;;27.10;49.05;99052.80;124797;1093;64267;-77
2021/06/27 10:47:48;;;;;;;7.50;6.87;;;;;;;27.04;48.76;99044.58;124703;1093;64287;-76
2021/06/27 10:50:17;;;;;;;7.80;7.17;;;;;;;27.10;48.57;99032.81;124631;1093;64242;-76
2021/06/27 10:52:50;;;;;;;6.73;6.10;;;;;;;27.18;49.65;99035.38;124805;1093;64265;-76
2021/06/27 10:55:26;;;;;;;6.70;6.10;;;;;;;27.29;49.00;99032.02;124805;1092;64377;-77
2021/06/27 10:58:03;;;;;;;8.40;6.57;;;;;;;27.33;49.76;99029.69;124791;1093;64271;-76
2021/06/27 11:01:00;;;;;;;7.07;6.47;;;;;;;27.48;50.52;99032.23;124836;1093;64383;-77
2021/06/27 11:03:27;;;;;;;7.37;6.60;;;;;;;27.56;49.40;99026.53;124775;1093;64367;-77
2021/06/27 11:05:59;;;;;;;6.50;6.10;;;;;;;27.43;48.84;99026.54;124810;1093;64293;-77
2021/06/27 11:08:38;;;;;;;7.13;6.43;;;;;;;27.42;50.08;99022.13;124903;1093;64291;-77
2021/06/27 11:11:10;;;;;;;;;;;;;;;27.63;50.04;99015.59;124932;1093;64279;-77
2021/06/27 11:13:39;;;;;;;7.03;6.53;;;;;;;27.75;50.46;99011.99;124886;1093;64340;-79
2021/06/27 11:16:12;;;;;;;11.10;6.43;;;;;;;27.90;50.26;99011.77;124814;1093;64287;-78
2021/06/27 11:18:43;;;;;;;6.70;6.07;;;;;;;27.94;50.32;99014.94;124862;1093;64418;-78
2021/06/27 11:21:24;;;;;;;7.03;6.43;;;;;;;27.93;49.93;99014.06;124850;1093;64266;-76